sensor_id;sensor_type;location;lat;lon;timestamp;temperature;humidity
11647;DHT22;5880;52.342;9.662;2024-03-23T00:53:38;11.80;68.00
11647;DHT22;5880;52.342;9.662;2024-03-23T00:56:04;11.80;68.00
11647;DHT22;5880;52.342;9.662;2024-03-23T00:58:30;11.80;67.90
11647;DHT22;5880;52.342;9.662;2024-03-23T01:00:56;11.80;67.90
11647;DHT22;5880;52.342;9.662;2024-03-23T01:03:21;11.80;67.90
11647;DHT22;5880;52.342;9.662;2024-03-23T01:05:47;11.80;67.90
11647;DHT22;5880;52.342;9.662;2024-03-23T01:08:14;11.80;68.00
11647;DHT22;5880;52.342;9.662;2024-03-23T01:10:40;11.80;68.00
11647;DHT22;5880;52.342;9.662;2024-03-23T01:13:06;11.70;68.10
11647;DHT22;5880;52.342;9.662;2024-03-23T01:15:31;11.70;68.00
11647;DHT22;5880;52.342;9.662;2024-03-23T01:17:57;11.70;68.00
11647;DHT22;5880;52.342;9.662;2024-03-23T01:20:23;11.70;68.00
11647;DHT22;5880;52.342;9.662;2024-03-23T01:22:48;11.70;67.90
11647;DHT22;5880;52.342;9.662;2024-03-23T01:25:14;11.70;68.00
11647;DHT22;5880;52.342;9.662;2024-03-23T01:27:39;11.60;67.90
11647;DHT22;5880;52.342;9.662;2024-03-23T01:30:06;11.60;67.90
11647;DHT22;5880;52.342;9.662;2024-03-23T01:32:32;11.60;67.90
11647;DHT22;5880;52.342;9.662;2024-03-23T01:34:58;11.60;67.90
11647;DHT22;5880;52.342;9.662;2024-03-23T01:37:24;11.60;67.80
11647;DHT22;5880;52.342;9.662;2024-03-23T01:39:49;11.60;67.70
11647;DHT22;5880;52.342;9.662;2024-03-23T01:42:16;11.60;67.60
11647;DHT22;5880;52.342;9.662;2024-03-23T01:44:41;11.60;67.60
11647;DHT22;5880;52.342;9.662;2024-03-23T01:47:07;11.60;68.30
11647;DHT22;5880;52.342;9.662;2024-03-23T01:49:33;11.50;67.60
11647;DHT22;5880;52.342;9.662;2024-03-23T01:51:59;11.50;67.70
11647;DHT22;5880;52.342;9.662;2024-03-23T01:54:25;11.50;67.80
11647;DHT22;5880;52.342;9.662;2024-03-23T01:56:51;11.50;67.90
11647;DHT22;5880;52.342;9.662;2024-03-23T01:59:17;11.50;67.90
11647;DHT22;5880;52.342;9.662;2024-03-23T02:01:43;11.50;67.90
11647;DHT22;5880;52.342;9.662;2024-03-23T02:04:08;11.40;67.90
11647;DHT22;5880;52.342;9.662;2024-03-23T02:06:35;11.40;67.90
11647;DHT22;5880;52.342;9.662;2024-03-23T02:09:00;11.40;67.90
11647;DHT22;5880;52.342;9.662;2024-03-23T02:11:26;11.40;68.00
11647;DHT22;5880;52.342;9.662;2024-03-23T02:13:52;11.40;68.00
11647;DHT22;5880;52.342;9.662;2024-03-23T02:16:18;11.40;68.00
11647;DHT22;5880;52.342;9.662;2024-03-23T02:18:44;11.40;68.10
11647;DHT22;5880;52.342;9.662;2024-03-23T02:21:09;11.40;68.10
11647;DHT22;5880;52.342;9.662;2024-03-23T02:23:35;11.40;68.00
11647;DHT22;5880;52.342;9.662;2024-03-23T02:26:00;11.40;68.10
11647;DHT22;5880;52.342;9.662;2024-03-23T02:28:26;11.40;68.00
11647;DHT22;5880;52.342;9.662;2024-03-23T02:30:52;11.30;68.00
11647;DHT22;5880;52.342;9.662;2024-03-23T02:33:20;11.40;67.90
11647;DHT22;5880;52.342;9.662;2024-03-23T02:35:47;11.40;67.90
11647;DHT22;5880;52.342;9.662;2024-03-23T02:38:13;11.40;68.00
11647;DHT22;5880;52.342;9.662;2024-03-23T02:40:38;11.40;68.00
11647;DHT22;5880;52.342;9.662;2024-03-23T02:43:04;11.40;67.90
11647;DHT22;5880;52.342;9.662;2024-03-23T02:45:30;11.40;67.90
11647;DHT22;5880;52.342;9.662;2024-03-23T02:47:56;11.40;67.90
11647;DHT22;5880;52.342;9.662;2024-03-23T02:50:22;11.40;67.80
11647;DHT22;5880;52.342;9.662;2024-03-23T02:52:48;11.30;67.80
11647;DHT22;5880;52.342;9.662;2024-03-23T02:55:14;11.40;67.90
11647;DHT22;5880;52.342;9.662;2024-03-23T02:57:40;11.40;67.80
11647;DHT22;5880;52.342;9.662;2024-03-23T03:00:06;11.40;67.80
11647;DHT22;5880;52.342;9.662;2024-03-23T03:02:33;11.30;67.80
11647;DHT22;5880;52.342;9.662;2024-03-23T03:04:59;11.30;67.80
11647;DHT22;5880;52.342;9.662;2024-03-23T03:07:24;11.30;67.80
11647;DHT22;5880;52.342;9.662;2024-03-23T03:09:51;11.30;67.70
11647;DHT22;5880;52.342;9.662;2024-03-23T03:12:16;11.30;67.60
11647;DHT22;5880;52.342;9.662;2024-03-23T03:14:42;11.30;67.70
11647;DHT22;5880;52.342;9.662;2024-03-23T03:17:08;11.30;67.80
11647;DHT22;5880;52.342;9.662;2024-03-23T03:19:34;11.30;67.80
11647;DHT22;5880;52.342;9.662;2024-03-23T03:21:59;11.30;67.70
11647;DHT22;5880;52.342;9.662;2024-03-23T03:24:25;11.20;67.60
11647;DHT22;5880;52.342;9.662;2024-03-23T03:26:50;11.20;67.50
11647;DHT22;5880;52.342;9.662;2024-03-23T03:29:16;11.20;67.50
11647;DHT22;5880;52.342;9.662;2024-03-23T03:31:42;11.10;67.60
11647;DHT22;5880;52.342;9.662;2024-03-23T03:34:09;11.10;67.80
11647;DHT22;5880;52.342;9.662;2024-03-23T03:36:34;11.10;67.90
11647;DHT22;5880;52.342;9.662;2024-03-23T03:39:00;11.10;68.10
11647;DHT22;5880;52.342;9.662;2024-03-23T03:41:26;11.10;68.10
11647;DHT22;5880;52.342;9.662;2024-03-23T03:43:51;11.00;68.00
11647;DHT22;5880;52.342;9.662;2024-03-23T03:46:17;11.00;68.00
11647;DHT22;5880;52.342;9.662;2024-03-23T03:48:43;11.00;67.90
11647;DHT22;5880;52.342;9.662;2024-03-23T03:51:10;11.00;68.00
11647;DHT22;5880;52.342;9.662;2024-03-23T03:53:36;11.00;68.10
11647;DHT22;5880;52.342;9.662;2024-03-23T03:56:02;11.00;68.10
11647;DHT22;5880;52.342;9.662;2024-03-23T03:58:28;10.90;68.10
11647;DHT22;5880;52.342;9.662;2024-03-23T04:00:54;11.00;68.10
11647;DHT22;5880;52.342;9.662;2024-03-23T04:03:19;10.90;68.10
11647;DHT22;5880;52.342;9.662;2024-03-23T04:05:55;10.90;68.20
11647;DHT22;5880;52.342;9.662;2024-03-23T04:08:21;10.90;68.40
11647;DHT22;5880;52.342;9.662;2024-03-23T04:10:47;10.90;68.20
11647;DHT22;5880;52.342;9.662;2024-03-23T04:13:13;11.00;68.30
11647;DHT22;5880;52.342;9.662;2024-03-23T04:15:40;10.90;68.30
11647;DHT22;5880;52.342;9.662;2024-03-23T04:18:05;10.90;68.30
11647;DHT22;5880;52.342;9.662;2024-03-23T04:20:31;10.90;68.40
11647;DHT22;5880;52.342;9.662;2024-03-23T04:23:01;10.90;68.40
11647;DHT22;5880;52.342;9.662;2024-03-23T04:25:26;10.80;68.30
11647;DHT22;5880;52.342;9.662;2024-03-23T04:27:52;10.80;68.20
11647;DHT22;5880;52.342;9.662;2024-03-23T04:30:18;10.80;68.00
11647;DHT22;5880;52.342;9.662;2024-03-23T04:32:44;10.80;67.90
11647;DHT22;5880;52.342;9.662;2024-03-23T04:35:10;10.80;67.90
11647;DHT22;5880;52.342;9.662;2024-03-23T04:37:36;10.80;67.90
11647;DHT22;5880;52.342;9.662;2024-03-23T04:40:08;10.80;67.90
11647;DHT22;5880;52.342;9.662;2024-03-23T04:42:34;10.80;67.70
11647;DHT22;5880;52.342;9.662;2024-03-23T04:45:00;10.80;68.40
11647;DHT22;5880;52.342;9.662;2024-03-23T04:47:26;10.70;67.70
11647;DHT22;5880;52.342;9.662;2024-03-23T04:49:52;10.80;67.70
11647;DHT22;5880;52.342;9.662;2024-03-23T04:52:18;10.70;67.80
11647;DHT22;5880;52.342;9.662;2024-03-23T04:54:44;10.70;67.90
11647;DHT22;5880;52.342;9.662;2024-03-23T04:57:10;10.70;67.90
11647;DHT22;5880;52.342;9.662;2024-03-23T04:59:36;10.70;68.00
11647;DHT22;5880;52.342;9.662;2024-03-23T05:02:02;10.70;68.00
11647;DHT22;5880;52.342;9.662;2024-03-23T05:04:28;10.60;67.80
11647;DHT22;5880;52.342;9.662;2024-03-23T05:06:53;10.60;67.80
11647;DHT22;5880;52.342;9.662;2024-03-23T05:09:19;10.60;68.60
11647;DHT22;5880;52.342;9.662;2024-03-23T05:11:45;10.50;67.80
11647;DHT22;5880;52.342;9.662;2024-03-23T05:14:13;10.60;67.90
11647;DHT22;5880;52.342;9.662;2024-03-23T05:16:39;10.50;67.90
11647;DHT22;5880;52.342;9.662;2024-03-23T05:19:05;10.50;67.80
11647;DHT22;5880;52.342;9.662;2024-03-23T05:21:31;10.50;67.90
11647;DHT22;5880;52.342;9.662;2024-03-23T05:23:56;10.50;68.00
11647;DHT22;5880;52.342;9.662;2024-03-23T05:26:22;10.60;68.00
11647;DHT22;5880;52.342;9.662;2024-03-23T05:28:48;10.50;68.10
11647;DHT22;5880;52.342;9.662;2024-03-23T05:31:26;10.60;68.80
11647;DHT22;5880;52.342;9.662;2024-03-23T05:33:53;10.50;67.80
11647;DHT22;5880;52.342;9.662;2024-03-23T05:36:18;10.50;67.60
11647;DHT22;5880;52.342;9.662;2024-03-23T05:38:44;10.60;67.40
11647;DHT22;5880;52.342;9.662;2024-03-23T05:41:10;10.50;67.30
11647;DHT22;5880;52.342;9.662;2024-03-23T05:43:36;10.50;67.10
11647;DHT22;5880;52.342;9.662;2024-03-23T05:46:02;10.40;67.00
11647;DHT22;5880;52.342;9.662;2024-03-23T05:48:28;10.40;67.00
11647;DHT22;5880;52.342;9.662;2024-03-23T05:50:55;10.40;66.90
11647;DHT22;5880;52.342;9.662;2024-03-23T05:53:24;10.60;67.10
11647;DHT22;5880;52.342;9.662;2024-03-23T05:55:51;10.30;67.10
11647;DHT22;5880;52.342;9.662;2024-03-23T05:58:25;10.30;67.20
11647;DHT22;5880;52.342;9.662;2024-03-23T06:01:00;10.30;67.20
11647;DHT22;5880;52.342;9.662;2024-03-23T06:03:28;10.30;67.60
11647;DHT22;5880;52.342;9.662;2024-03-23T06:05:57;10.30;67.60
11647;DHT22;5880;52.342;9.662;2024-03-23T06:08:23;9.80;67.50
11647;DHT22;5880;52.342;9.662;2024-03-23T06:10:49;10.30;67.80
11647;DHT22;5880;52.342;9.662;2024-03-23T06:13:16;10.30;67.90
11647;DHT22;5880;52.342;9.662;2024-03-23T06:15:43;10.30;67.90
11647;DHT22;5880;52.342;9.662;2024-03-23T06:18:09;10.30;67.80
11647;DHT22;5880;52.342;9.662;2024-03-23T06:20:34;10.30;67.80
11647;DHT22;5880;52.342;9.662;2024-03-23T06:23:03;10.30;67.80
11647;DHT22;5880;52.342;9.662;2024-03-23T06:25:29;10.20;67.80
11647;DHT22;5880;52.342;9.662;2024-03-23T06:27:55;10.30;68.00
11647;DHT22;5880;52.342;9.662;2024-03-23T06:30:21;10.20;68.00
11647;DHT22;5880;52.342;9.662;2024-03-23T06:32:47;10.30;68.10
11647;DHT22;5880;52.342;9.662;2024-03-23T06:35:12;10.30;68.20
11647;DHT22;5880;52.342;9.662;2024-03-23T06:37:38;10.30;68.30
11647;DHT22;5880;52.342;9.662;2024-03-23T06:40:07;10.30;68.30
11647;DHT22;5880;52.342;9.662;2024-03-23T06:42:35;10.30;68.20
11647;DHT22;5880;52.342;9.662;2024-03-23T06:45:02;10.30;68.20
11647;DHT22;5880;52.342;9.662;2024-03-23T06:47:31;10.30;68.20
11647;DHT22;5880;52.342;9.662;2024-03-23T06:49:59;10.30;68.20
11647;DHT22;5880;52.342;9.662;2024-03-23T06:52:27;10.40;68.30
11647;DHT22;5880;52.342;9.662;2024-03-23T06:54:53;10.30;68.20
11647;DHT22;5880;52.342;9.662;2024-03-23T06:57:19;10.30;68.30
11647;DHT22;5880;52.342;9.662;2024-03-23T06:59:44;10.40;68.30
11647;DHT22;5880;52.342;9.662;2024-03-23T07:02:11;10.40;68.30
11647;DHT22;5880;52.342;9.662;2024-03-23T07:04:37;10.40;68.40
11647;DHT22;5880;52.342;9.662;2024-03-23T07:07:05;10.40;68.30
11647;DHT22;5880;52.342;9.662;2024-03-23T07:09:30;10.40;68.30
11647;DHT22;5880;52.342;9.662;2024-03-23T07:11:57;10.50;68.50
11647;DHT22;5880;52.342;9.662;2024-03-23T07:14:23;10.50;68.40
11647;DHT22;5880;52.342;9.662;2024-03-23T07:16:50;10.50;68.50
11647;DHT22;5880;52.342;9.662;2024-03-23T07:19:17;10.50;68.70
11647;DHT22;5880;52.342;9.662;2024-03-23T07:21:43;10.50;68.80
11647;DHT22;5880;52.342;9.662;2024-03-23T07:24:10;10.50;68.80
11647;DHT22;5880;52.342;9.662;2024-03-23T07:26:36;10.60;68.80
11647;DHT22;5880;52.342;9.662;2024-03-23T07:29:03;10.60;68.90
11647;DHT22;5880;52.342;9.662;2024-03-23T07:31:29;10.60;68.90
11647;DHT22;5880;52.342;9.662;2024-03-23T07:33:55;10.60;68.80
11647;DHT22;5880;52.342;9.662;2024-03-23T07:36:21;10.60;68.80
11647;DHT22;5880;52.342;9.662;2024-03-23T07:38:46;10.60;68.80
11647;DHT22;5880;52.342;9.662;2024-03-23T07:41:15;10.70;69.00
11647;DHT22;5880;52.342;9.662;2024-03-23T07:43:43;10.70;69.10
11647;DHT22;5880;52.342;9.662;2024-03-23T07:46:09;10.70;68.90
11647;DHT22;5880;52.342;9.662;2024-03-23T07:48:35;10.70;68.90
11647;DHT22;5880;52.342;9.662;2024-03-23T07:51:03;10.70;69.00
11647;DHT22;5880;52.342;9.662;2024-03-23T07:53:31;10.70;69.10
11647;DHT22;5880;52.342;9.662;2024-03-23T07:55:59;10.80;69.20
11647;DHT22;5880;52.342;9.662;2024-03-23T07:58:26;10.80;69.20
11647;DHT22;5880;52.342;9.662;2024-03-23T08:00:54;10.80;69.30
11647;DHT22;5880;52.342;9.662;2024-03-23T08:03:20;10.80;70.10
11647;DHT22;5880;52.342;9.662;2024-03-23T08:05:46;10.80;69.30
11647;DHT22;5880;52.342;9.662;2024-03-23T08:08:12;10.80;69.20
11647;DHT22;5880;52.342;9.662;2024-03-23T08:10:48;10.80;69.10
11647;DHT22;5880;52.342;9.662;2024-03-23T08:13:14;10.90;69.40
11647;DHT22;5880;52.342;9.662;2024-03-23T08:15:40;10.90;69.10
11647;DHT22;5880;52.342;9.662;2024-03-23T08:18:05;10.90;69.20
11647;DHT22;5880;52.342;9.662;2024-03-23T08:20:31;10.90;69.10
11647;DHT22;5880;52.342;9.662;2024-03-23T08:22:57;10.90;69.20
11647;DHT22;5880;52.342;9.662;2024-03-23T08:25:22;10.90;69.20
11647;DHT22;5880;52.342;9.662;2024-03-23T08:27:48;10.90;69.50
11647;DHT22;5880;52.342;9.662;2024-03-23T08:30:14;11.00;69.70
11647;DHT22;5880;52.342;9.662;2024-03-23T08:32:39;11.00;69.60
11647;DHT22;5880;52.342;9.662;2024-03-23T08:35:05;11.10;69.80
11647;DHT22;5880;52.342;9.662;2024-03-23T08:37:32;11.10;69.70
11647;DHT22;5880;52.342;9.662;2024-03-23T08:39:57;11.20;69.60
11647;DHT22;5880;52.342;9.662;2024-03-23T08:42:23;11.30;70.50
11647;DHT22;5880;52.342;9.662;2024-03-23T08:44:50;11.40;70.40
11647;DHT22;5880;52.342;9.662;2024-03-23T08:47:15;11.60;70.60
11647;DHT22;5880;52.342;9.662;2024-03-23T08:49:41;11.70;70.20
11647;DHT22;5880;52.342;9.662;2024-03-23T08:52:07;11.80;69.20
11647;DHT22;5880;52.342;9.662;2024-03-23T08:54:33;11.90;68.20
11647;DHT22;5880;52.342;9.662;2024-03-23T08:57:00;11.90;67.70
11647;DHT22;5880;52.342;9.662;2024-03-23T08:59:26;11.90;67.30
11647;DHT22;5880;52.342;9.662;2024-03-23T09:01:52;11.80;67.00
11647;DHT22;5880;52.342;9.662;2024-03-23T09:04:18;11.80;67.00
11647;DHT22;5880;52.342;9.662;2024-03-23T09:06:44;11.80;67.30
11647;DHT22;5880;52.342;9.662;2024-03-23T09:09:10;11.80;67.30
11647;DHT22;5880;52.342;9.662;2024-03-23T09:11:35;11.80;67.50
11647;DHT22;5880;52.342;9.662;2024-03-23T09:14:03;11.80;67.40
11647;DHT22;5880;52.342;9.662;2024-03-23T09:16:29;11.80;67.50
11647;DHT22;5880;52.342;9.662;2024-03-23T09:18:54;11.80;67.30
11647;DHT22;5880;52.342;9.662;2024-03-23T09:21:20;11.80;67.40
11647;DHT22;5880;52.342;9.662;2024-03-23T09:23:46;11.80;67.40
11647;DHT22;5880;52.342;9.662;2024-03-23T09:26:14;11.80;67.40
11647;DHT22;5880;52.342;9.662;2024-03-23T09:28:40;11.80;67.60
11647;DHT22;5880;52.342;9.662;2024-03-23T09:31:07;11.80;68.30
11647;DHT22;5880;52.342;9.662;2024-03-23T09:33:34;11.90;68.20
11647;DHT22;5880;52.342;9.662;2024-03-23T09:36:04;11.90;68.00
11647;DHT22;5880;52.342;9.662;2024-03-23T09:38:31;12.10;69.10
11647;DHT22;5880;52.342;9.662;2024-03-23T09:40:57;12.20;68.90
11647;DHT22;5880;52.342;9.662;2024-03-23T09:43:23;12.30;68.10
11647;DHT22;5880;52.342;9.662;2024-03-23T09:45:49;12.40;67.10
11647;DHT22;5880;52.342;9.662;2024-03-23T09:48:15;12.40;66.10
11647;DHT22;5880;52.342;9.662;2024-03-23T09:50:43;12.40;66.90
11647;DHT22;5880;52.342;9.662;2024-03-23T09:53:11;12.50;67.60
11647;DHT22;5880;52.342;9.662;2024-03-23T09:55:38;12.70;67.00
11647;DHT22;5880;52.342;9.662;2024-03-23T09:58:05;12.70;66.60
11647;DHT22;5880;52.342;9.662;2024-03-23T10:00:32;12.70;64.10
11647;DHT22;5880;52.342;9.662;2024-03-23T10:02:58;12.70;64.30
11647;DHT22;5880;52.342;9.662;2024-03-23T10:05:27;12.70;63.20
11647;DHT22;5880;52.342;9.662;2024-03-23T10:07:54;12.60;62.70
11647;DHT22;5880;52.342;9.662;2024-03-23T10:10:20;12.60;63.30
11647;DHT22;5880;52.342;9.662;2024-03-23T10:12:49;12.60;65.30
11647;DHT22;5880;52.342;9.662;2024-03-23T10:15:20;12.70;65.70
11647;DHT22;5880;52.342;9.662;2024-03-23T10:17:47;12.90;66.00
11647;DHT22;5880;52.342;9.662;2024-03-23T10:20:14;13.20;68.30
11647;DHT22;5880;52.342;9.662;2024-03-23T10:22:45;13.50;68.70
11647;DHT22;5880;52.342;9.662;2024-03-23T10:25:11;13.90;67.80
11647;DHT22;5880;52.342;9.662;2024-03-23T10:27:39;14.20;67.80
11647;DHT22;5880;52.342;9.662;2024-03-23T10:30:12;14.50;66.30
11647;DHT22;5880;52.342;9.662;2024-03-23T10:32:42;14.80;64.80
11647;DHT22;5880;52.342;9.662;2024-03-23T10:37:44;15.20;59.10
11647;DHT22;5880;52.342;9.662;2024-03-23T10:40:12;15.30;61.00
11647;DHT22;5880;52.342;9.662;2024-03-23T10:42:38;15.20;59.90
11647;DHT22;5880;52.342;9.662;2024-03-23T10:45:05;15.10;58.80
11647;DHT22;5880;52.342;9.662;2024-03-23T10:47:33;15.00;57.10
11647;DHT22;5880;52.342;9.662;2024-03-23T10:50:00;14.70;56.10
11647;DHT22;5880;52.342;9.662;2024-03-23T10:52:26;14.40;56.30
11647;DHT22;5880;52.342;9.662;2024-03-23T10:54:52;14.10;57.20
11647;DHT22;5880;52.342;9.662;2024-03-23T10:57:21;13.90;58.00
11647;DHT22;5880;52.342;9.662;2024-03-23T10:59:51;13.80;58.00
11647;DHT22;5880;52.342;9.662;2024-03-23T11:02:21;13.60;59.10
11647;DHT22;5880;52.342;9.662;2024-03-23T11:04:48;13.50;59.10
11647;DHT22;5880;52.342;9.662;2024-03-23T11:09:51;13.30;59.20
11647;DHT22;5880;52.342;9.662;2024-03-23T11:15:12;13.20;59.50
11647;DHT22;5880;52.342;9.662;2024-03-23T11:17:38;13.00;58.40
11647;DHT22;5880;52.342;9.662;2024-03-23T11:20:05;12.80;58.60
11647;DHT22;5880;52.342;9.662;2024-03-23T11:25:04;12.40;58.80
11647;DHT22;5880;52.342;9.662;2024-03-23T11:27:37;12.60;59.60
11647;DHT22;5880;52.342;9.662;2024-03-23T11:30:16;12.10;60.40
11647;DHT22;5880;52.342;9.662;2024-03-23T11:32:44;12.00;61.80
11647;DHT22;5880;52.342;9.662;2024-03-23T11:35:24;11.90;62.50
11647;DHT22;5880;52.342;9.662;2024-03-23T11:38:06;12.00;63.10
11647;DHT22;5880;52.342;9.662;2024-03-23T11:40:37;12.00;63.80
11647;DHT22;5880;52.342;9.662;2024-03-23T11:43:05;12.10;64.10
11647;DHT22;5880;52.342;9.662;2024-03-23T11:45:37;12.20;64.00
11647;DHT22;5880;52.342;9.662;2024-03-23T11:48:10;12.30;63.40
11647;DHT22;5880;52.342;9.662;2024-03-23T11:50:41;12.30;62.90
11647;DHT22;5880;52.342;9.662;2024-03-23T11:53:16;12.30;62.60
11647;DHT22;5880;52.342;9.662;2024-03-23T11:58:37;12.20;61.60
11647;DHT22;5880;52.342;9.662;2024-03-23T12:01:04;12.20;61.40
11647;DHT22;5880;52.342;9.662;2024-03-23T12:03:31;12.00;61.30
11647;DHT22;5880;52.342;9.662;2024-03-23T12:06:03;11.90;61.20
11647;DHT22;5880;52.342;9.662;2024-03-23T12:08:33;11.80;61.10
11647;DHT22;5880;52.342;9.662;2024-03-23T12:11:07;11.70;60.90
11647;DHT22;5880;52.342;9.662;2024-03-23T12:13:38;11.50;60.50
11647;DHT22;5880;52.342;9.662;2024-03-23T12:18:38;11.30;61.40
11647;DHT22;5880;52.342;9.662;2024-03-23T12:21:08;11.30;62.20
11647;DHT22;5880;52.342;9.662;2024-03-23T12:23:35;11.20;63.00
11647;DHT22;5880;52.342;9.662;2024-03-23T12:26:01;11.30;63.70
11647;DHT22;5880;52.342;9.662;2024-03-23T12:28:27;11.10;64.00
11647;DHT22;5880;52.342;9.662;2024-03-23T12:30:53;11.40;63.90
11647;DHT22;5880;52.342;9.662;2024-03-23T12:33:20;11.40;63.70
11647;DHT22;5880;52.342;9.662;2024-03-23T12:35:47;11.40;63.70
11647;DHT22;5880;52.342;9.662;2024-03-23T12:38:14;11.40;63.10
11647;DHT22;5880;52.342;9.662;2024-03-23T12:40:40;11.40;62.90
11647;DHT22;5880;52.342;9.662;2024-03-23T12:43:06;11.40;63.00
11647;DHT22;5880;52.342;9.662;2024-03-23T12:45:33;11.40;61.90
11647;DHT22;5880;52.342;9.662;2024-03-23T12:47:58;11.30;61.20
11647;DHT22;5880;52.342;9.662;2024-03-23T12:50:24;11.30;61.60
11647;DHT22;5880;52.342;9.662;2024-03-23T12:52:50;11.30;61.90
11647;DHT22;5880;52.342;9.662;2024-03-23T12:55:16;11.20;61.90
11647;DHT22;5880;52.342;9.662;2024-03-23T12:57:42;11.10;62.00
11647;DHT22;5880;52.342;9.662;2024-03-23T13:00:08;11.10;62.20
11647;DHT22;5880;52.342;9.662;2024-03-23T13:02:37;11.10;62.40
11647;DHT22;5880;52.342;9.662;2024-03-23T13:05:04;11.00;62.50
11647;DHT22;5880;52.342;9.662;2024-03-23T13:07:30;11.00;62.50
11647;DHT22;5880;52.342;9.662;2024-03-23T13:09:56;11.00;62.50
11647;DHT22;5880;52.342;9.662;2024-03-23T13:12:22;10.90;63.00
11647;DHT22;5880;52.342;9.662;2024-03-23T13:14:51;11.00;63.80
11647;DHT22;5880;52.342;9.662;2024-03-23T13:17:17;11.10;64.50
11647;DHT22;5880;52.342;9.662;2024-03-23T13:19:43;11.20;64.60
11647;DHT22;5880;52.342;9.662;2024-03-23T13:22:09;11.30;64.50
11647;DHT22;5880;52.342;9.662;2024-03-23T13:24:37;11.40;64.30
11647;DHT22;5880;52.342;9.662;2024-03-23T13:27:03;11.60;64.00
11647;DHT22;5880;52.342;9.662;2024-03-23T13:29:33;11.70;63.40
11647;DHT22;5880;52.342;9.662;2024-03-23T13:32:03;11.80;63.30
11647;DHT22;5880;52.342;9.662;2024-03-23T13:34:29;11.80;63.00
11647;DHT22;5880;52.342;9.662;2024-03-23T13:36:55;11.90;62.80
11647;DHT22;5880;52.342;9.662;2024-03-23T13:39:23;11.90;62.60
11647;DHT22;5880;52.342;9.662;2024-03-23T13:41:49;12.10;62.80
11647;DHT22;5880;52.342;9.662;2024-03-23T13:44:15;12.10;62.80
11647;DHT22;5880;52.342;9.662;2024-03-23T13:46:42;12.10;62.90
11647;DHT22;5880;52.342;9.662;2024-03-23T13:49:24;12.20;62.70
11647;DHT22;5880;52.342;9.662;2024-03-23T13:51:58;12.40;62.20
11647;DHT22;5880;52.342;9.662;2024-03-23T13:54:27;12.40;61.80
11647;DHT22;5880;52.342;9.662;2024-03-23T13:56:55;12.40;61.30
11647;DHT22;5880;52.342;9.662;2024-03-23T13:59:22;12.50;61.40
11647;DHT22;5880;52.342;9.662;2024-03-23T14:01:51;12.50;61.10
11647;DHT22;5880;52.342;9.662;2024-03-23T14:04:17;12.50;59.80
11647;DHT22;5880;52.342;9.662;2024-03-23T14:06:44;12.50;60.70
11647;DHT22;5880;52.342;9.662;2024-03-23T14:09:11;12.60;61.20
11647;DHT22;5880;52.342;9.662;2024-03-23T14:11:37;12.60;61.60
11647;DHT22;5880;52.342;9.662;2024-03-23T14:14:04;12.70;61.40
11647;DHT22;5880;52.342;9.662;2024-03-23T14:16:31;12.80;61.50
11647;DHT22;5880;52.342;9.662;2024-03-23T14:18:57;12.80;59.70
11647;DHT22;5880;52.342;9.662;2024-03-23T14:21:22;12.80;60.00
11647;DHT22;5880;52.342;9.662;2024-03-23T14:23:49;12.70;59.70
11647;DHT22;5880;52.342;9.662;2024-03-23T14:26:15;12.70;59.10
11647;DHT22;5880;52.342;9.662;2024-03-23T14:28:40;12.70;58.10
11647;DHT22;5880;52.342;9.662;2024-03-23T14:31:06;12.60;57.80
11647;DHT22;5880;52.342;9.662;2024-03-23T14:33:36;12.50;58.00
11647;DHT22;5880;52.342;9.662;2024-03-23T14:36:03;12.30;56.90
11647;DHT22;5880;52.342;9.662;2024-03-23T14:38:29;12.10;56.40
11647;DHT22;5880;52.342;9.662;2024-03-23T14:41:00;11.90;57.00
11647;DHT22;5880;52.342;9.662;2024-03-23T14:43:28;11.80;57.20
11647;DHT22;5880;52.342;9.662;2024-03-23T14:46:08;11.60;57.30
11647;DHT22;5880;52.342;9.662;2024-03-23T14:48:35;11.40;56.40
11647;DHT22;5880;52.342;9.662;2024-03-23T14:51:02;11.20;57.70
11647;DHT22;5880;52.342;9.662;2024-03-23T14:53:40;11.10;58.10
11647;DHT22;5880;52.342;9.662;2024-03-23T14:56:10;11.00;58.50
11647;DHT22;5880;52.342;9.662;2024-03-23T14:58:38;10.90;59.00
11647;DHT22;5880;52.342;9.662;2024-03-23T15:01:06;10.90;59.40
11647;DHT22;5880;52.342;9.662;2024-03-23T15:03:36;10.90;59.70
11647;DHT22;5880;52.342;9.662;2024-03-23T15:06:04;10.90;60.60
11647;DHT22;5880;52.342;9.662;2024-03-23T15:08:30;11.00;61.10
11647;DHT22;5880;52.342;9.662;2024-03-23T15:11:00;11.10;61.20
11647;DHT22;5880;52.342;9.662;2024-03-23T15:13:26;11.20;60.00
11647;DHT22;5880;52.342;9.662;2024-03-23T15:15:52;11.30;60.60
11647;DHT22;5880;52.342;9.662;2024-03-23T15:18:18;11.40;60.20
11647;DHT22;5880;52.342;9.662;2024-03-23T15:20:59;11.50;59.50
11647;DHT22;5880;52.342;9.662;2024-03-23T15:23:29;11.50;58.40
11647;DHT22;5880;52.342;9.662;2024-03-23T15:25:59;11.50;58.80
11647;DHT22;5880;52.342;9.662;2024-03-23T15:28:26;11.50;58.50
11647;DHT22;5880;52.342;9.662;2024-03-23T15:31:06;11.50;58.90
11647;DHT22;5880;52.342;9.662;2024-03-23T15:33:32;11.50;58.70
11647;DHT22;5880;52.342;9.662;2024-03-23T15:35:59;11.50;58.70
11647;DHT22;5880;52.342;9.662;2024-03-23T15:38:25;11.50;58.70
11647;DHT22;5880;52.342;9.662;2024-03-23T15:40:54;11.50;58.60
11647;DHT22;5880;52.342;9.662;2024-03-23T15:43:20;11.40;58.30
11647;DHT22;5880;52.342;9.662;2024-03-23T15:45:55;11.40;58.50
11647;DHT22;5880;52.342;9.662;2024-03-23T15:48:22;11.40;57.70
11647;DHT22;5880;52.342;9.662;2024-03-23T15:50:56;11.30;57.90
11647;DHT22;5880;52.342;9.662;2024-03-23T15:53:31;11.20;57.10
11647;DHT22;5880;52.342;9.662;2024-03-23T15:56:02;10.90;56.20
11647;DHT22;5880;52.342;9.662;2024-03-23T15:58:29;10.70;56.50
11647;DHT22;5880;52.342;9.662;2024-03-23T16:01:08;10.30;56.90
11647;DHT22;5880;52.342;9.662;2024-03-23T16:03:36;10.10;58.00
11647;DHT22;5880;52.342;9.662;2024-03-23T16:06:04;9.90;58.40
11647;DHT22;5880;52.342;9.662;2024-03-23T16:08:32;9.70;59.20
11647;DHT22;5880;52.342;9.662;2024-03-23T16:11:05;9.60;60.00
11647;DHT22;5880;52.342;9.662;2024-03-23T16:13:33;9.50;61.10
11647;DHT22;5880;52.342;9.662;2024-03-23T16:16:01;9.50;61.60
11647;DHT22;5880;52.342;9.662;2024-03-23T16:18:36;9.50;62.00
11647;DHT22;5880;52.342;9.662;2024-03-23T16:21:05;9.50;61.90
11647;DHT22;5880;52.342;9.662;2024-03-23T16:23:32;9.50;61.80
11647;DHT22;5880;52.342;9.662;2024-03-23T16:25:59;9.50;61.70
11647;DHT22;5880;52.342;9.662;2024-03-23T16:28:36;9.50;61.60
11647;DHT22;5880;52.342;9.662;2024-03-23T16:31:04;9.50;61.70
11647;DHT22;5880;52.342;9.662;2024-03-23T16:33:36;9.40;61.80
11647;DHT22;5880;52.342;9.662;2024-03-23T16:36:09;9.40;62.10
11647;DHT22;5880;52.342;9.662;2024-03-23T16:38:37;9.40;62.30
11647;DHT22;5880;52.342;9.662;2024-03-23T16:41:06;9.50;62.40
11647;DHT22;5880;52.342;9.662;2024-03-23T16:43:35;9.50;62.60
11647;DHT22;5880;52.342;9.662;2024-03-23T16:46:10;9.50;62.40
11647;DHT22;5880;52.342;9.662;2024-03-23T16:48:37;9.50;62.40
11647;DHT22;5880;52.342;9.662;2024-03-23T16:51:05;9.50;62.20
11647;DHT22;5880;52.342;9.662;2024-03-23T16:53:34;9.50;62.10
11647;DHT22;5880;52.342;9.662;2024-03-23T16:56:02;9.50;62.00